Outage due to equipment failure. Site will not be transmitting information for the foreseeable future.

Latest Weather Observations for Rundle Island

IDQ60801

Issued at 10:35 pm EST Friday 25 July 2014 (issued every 30 minutes, with the page automatically refreshed every 10 minutes)

About weather observations | Map of weather stations | Latest weather observations for QLD | Other Formats
Station Details ID: 039322 Name: RUNDLE ISLAND Lat: -23.53 Lon: 151.28 Height: 19.8 m
Data from the previous 72 hours. | See also: Recent months at Rundle Island
Date/Time
EST
Temp
°C
App
Temp
°C
Dew
Point
Rel
Hum
%
Delta-T
°C
Wind Press
QNH
hPa
Press
MSL
hPa
Rain
since 9 am
mm
Dir
 
Spd
km/h
Gust
km/h
Spd
kts
Gust
kts
25/10:30pm 19.3 - - - - SSE 17 19 9 10 1025.8 - -
25/10:00pm 19.4 - - - - SE 19 22 10 12 1025.5 1025.4 -
25/09:30pm 19.4 - - - - SE 20 22 11 12 1025.4 - -
25/09:00pm 19.5 - - - - SE 20 22 11 12 1025.6 1025.5 -
25/08:30pm 19.5 - - - - SE 20 22 11 12 1025.6 - -
25/08:00pm 19.6 - - - - SE 20 22 11 12 1025.3 1025.2 -
25/07:30pm 19.5 - - - - SE 22 24 12 13 1024.9 - -
25/07:00pm 19.5 - - - - SE 20 24 11 13 1024.6 1024.5 -
25/06:30pm 19.4 - - - - SE 22 24 12 13 1024.1 - -
25/06:00pm 19.4 - - - - SE 24 28 13 15 1023.5 1023.4 -
25/05:30pm 19.4 - - - - SE 20 24 11 13 1023.4 - -
25/05:00pm 19.4 - - - - SE 22 24 12 13 1023.3 1023.2 -
25/04:30pm 19.7 - - - - SE 17 19 9 10 1023.1 - -
25/04:00pm 19.7 - - - - SSE 7 11 4 6 1022.9 1022.8 -
25/03:30pm 19.8 - - - - CALM 0 4 0 2 1022.8 - -
25/03:00pm 18.9 - - - - NNW 7 11 4 6 1023.0 1022.9 -
25/02:30pm 18.7 - - - - NNW 9 9 5 5 1023.2 - -
25/02:00pm 18.9 - - - - N 4 6 2 3 1023.4 1023.3 -
25/01:30pm 19.4 - - - - SSE 11 15 6 8 1023.5 - -
25/01:00pm 19.2 - - - - SE 22 24 12 13 1023.6 1023.5 -
25/12:30pm 19.1 - - - - SSE 20 24 11 13 1024.0 - -
25/12:00pm 18.6 - - - - SE 22 26 12 14 1024.6 1024.5 -
25/11:30am 19.1 - - - - SSE 22 26 12 14 1024.8 - -
25/11:00am 18.5 - - - - SSE 22 24 12 13 1025.1 1025.0 -
25/10:30am 18.0 - - - - SSE 22 24 12 13 1025.4 - -
25/10:00am 18.1 - - - - SSE 22 26 12 14 1025.4 1025.3 -
25/09:30am 18.1 - - - - SSE 22 24 12 13 1025.6 - -
25/09:00am 18.5 - - - - S 19 22 10 12 1025.4 1025.3 -
25/08:30am 18.4 - - - - S 17 19 9 10 1025.2 - -
25/08:00am 18.1 - - - - S 22 24 12 13 1024.7 1024.6 -
25/07:30am 18.0 - - - - SSE 20 22 11 12 1024.4 - -
25/07:00am 17.9 - - - - SSE 22 24 12 13 1023.9 1023.8 -
25/06:30am 17.8 - - - - SSE 24 26 13 14 1023.6 - -
25/06:00am 17.7 - - - - SSE 20 24 11 13 1023.4 1023.3 -
25/05:30am 18.0 - - - - SSE 24 26 13 14 1023.2 - -
25/05:00am 17.9 - - - - SSE 22 26 12 14 1022.7 1022.6 -
25/04:30am 17.9 - - - - SSE 20 24 11 13 1022.5 - -
25/04:00am 18.0 - - - - S 22 24 12 13 1022.3 1022.2 -
25/03:30am 17.9 - - - - S 20 22 11 12 1022.4 - -
25/03:00am 18.3 - - - - S 15 17 8 9 1022.5 1022.4 -
25/02:30am 18.7 - - - - SE 17 26 9 14 1022.7 - -
25/02:00am 18.6 - - - - SE 9 15 5 8 1022.8 1022.7 -
25/01:30am 18.8 - - - - ESE 7 11 4 6 1022.8 - -
25/01:00am 19.1 - - - - E 15 17 8 9 1022.7 1022.6 -
25/12:30am 18.6 - - - - SE 11 17 6 9 1022.7 - -
25/12:00am 18.7 - - - - S 13 15 7 8 1022.6 1022.5 -
 
Date/Time
EST
Temp
°C
App
Temp
°C
Dew
Point
Rel
Hum
%
Delta-T
°C
Wind Press
QNH
hPa
Press
MSL
hPa
Rain
since 9 am
mm
Dir
 
Spd
km/h
Gust
km/h
Spd
kts
Gust
kts
24/11:30pm 19.3 - - - - SSE 9 11 5 6 1022.6 - -
24/11:00pm 19.5 - - - - ESE 13 13 7 7 1022.5 1022.4 -
24/10:30pm 19.5 - - - - ESE 15 17 8 9 1022.6 - -
24/10:00pm 19.6 - - - - ESE 15 19 8 10 1022.7 1022.6 -
24/09:30pm 19.6 - - - - E 15 19 8 10 1022.7 - -
24/09:00pm 19.4 - - - - E 15 17 8 9 1022.6 1022.5 -
24/08:30pm 19.3 - - - - E 15 15 8 8 1022.5 - -
24/08:00pm 19.3 - - - - E 15 17 8 9 1022.3 1022.2 -
24/07:30pm 19.6 - - - - E 19 20 10 11 1022.0 - -
24/07:00pm 19.6 - - - - E 19 20 10 11 1021.7 1021.6 -
24/06:30pm 19.4 - - - - E 20 22 11 12 1021.2 - -
24/06:00pm 19.1 - - - - ESE 22 24 12 13 1020.7 1020.6 -
24/05:30pm 19.3 - - - - ESE 22 26 12 14 1020.4 - -
24/05:00pm 19.5 - - - - ESE 20 22 11 12 1020.2 1020.1 -
24/04:30pm 19.5 - - - - ESE 19 22 10 12 1019.9 - -
24/04:00pm 19.4 - - - - ESE 19 20 10 11 1019.8 1019.7 -
24/03:30pm 19.3 - - - - SE 20 24 11 13 1019.8 - -
24/03:00pm 19.4 - - - - SE 20 26 11 14 1019.7 1019.6 -
24/02:30pm 19.1 - - - - SE 22 26 12 14 1019.7 - -
24/02:00pm 19.2 - - - - SE 22 26 12 14 1019.7 1019.6 -
24/01:30pm 19.2 - - - - SE 22 26 12 14 1019.9 - -
24/01:00pm 19.1 - - - - SSE 20 24 11 13 1020.0 1019.9 -
24/12:30pm 18.8 - - - - SSE 22 24 12 13 1020.4 - -
24/12:00pm 19.4 - - - - S 20 24 11 13 1020.9 1020.8 -
24/11:30am 18.6 - - - - S 22 24 12 13 1021.2 - -
24/11:00am 18.4 - - - - SSE 19 22 10 12 1021.5 1021.4 -
24/10:30am 18.2 - - - - SE 20 24 11 13 1021.5 - -
24/10:00am 18.3 - - - - SE 22 28 12 15 1021.4 1021.3 -
24/09:30am 18.1 - - - - SE 24 28 13 15 1021.2 - -
24/09:00am 17.8 - - - - SE 24 28 13 15 1021.4 1021.3 -
24/08:30am 17.9 - - - - SSE 24 28 13 15 1021.4 - -
24/08:00am 17.7 - - - - SSE 26 30 14 16 1021.0 1020.9 -
24/07:30am 17.6 - - - - SSE 28 32 15 17 1020.9 - -
24/07:00am 17.4 - - - - SSE 24 28 13 15 1020.6 1020.5 -
24/06:30am 16.8 - - - - S 24 28 13 15 1020.3 - -
24/06:00am 17.0 - - - - S 26 30 14 16 1020.1 1020.0 -
24/05:30am 17.1 - - - - S 28 32 15 17 1019.9 - -
24/05:00am 17.0 - - - - S 28 33 15 18 1019.6 1019.5 -
24/04:30am 16.9 - - - - S 30 33 16 18 1019.5 - -
24/04:00am 17.1 - - - - S 28 32 15 17 1019.4 1019.3 -
24/03:30am 17.0 - - - - S 30 32 16 17 1019.4 - -
24/03:00am 16.9 - - - - S 28 32 15 17 1019.6 1019.5 -
24/02:30am 17.0 - - - - S 28 32 15 17 1019.8 - -
24/02:00am 17.2 - - - - S 28 32 15 17 1019.8 1019.7 -
24/01:30am 17.5 - - - - S 28 30 15 16 1019.9 - -
24/01:00am 17.5 - - - - S 26 30 14 16 1020.0 1019.9 -
24/12:30am 17.9 - - - - S 22 26 12 14 1020.1 - -
24/12:00am 19.2 - - - - SE 22 28 12 15 1020.1 1020.0 -
 
Date/Time
EST
Temp
°C
App
Temp
°C
Dew
Point
Rel
Hum
%
Delta-T
°C
Wind Press
QNH
hPa
Press
MSL
hPa
Rain
since 9 am
mm
Dir
 
Spd
km/h
Gust
km/h
Spd
kts
Gust
kts
23/11:30pm 19.4 - - - - ESE 28 32 15 17 1020.2 - -
23/11:00pm 19.3 - - - - ESE 26 30 14 16 1020.1 1020.0 -
23/10:30pm 19.4 - - - - ESE 24 30 13 16 1020.1 - -
23/10:00pm 19.5 - - - - ESE 26 30 14 16 1020.2 1020.1 -
23/09:30pm 19.3 - - - - ESE 28 32 15 17 1020.0 - -
23/09:00pm 19.4 - - - - ESE 30 33 16 18 1019.9 1019.8 -
23/08:30pm 19.3 - - - - ESE 32 35 17 19 1019.6 - -
23/08:00pm 19.4 - - - - ESE 30 35 16 19 1019.6 1019.5 -
23/07:30pm 19.4 - - - - E 30 33 16 18 1019.6 - -
23/07:00pm 19.4 - - - - E 32 35 17 19 1019.3 1019.2 -
23/06:30pm 19.4 - - - - E 32 35 17 19 1019.0 - -
23/06:00pm 19.4 - - - - E 32 35 17 19 1018.5 1018.4 -
23/05:30pm 19.2 - - - - E 30 33 16 18 1018.5 - -
23/05:00pm 19.3 - - - - E 32 35 17 19 1018.4 1018.3 -
23/04:30pm 19.2 - - - - E 30 33 16 18 1018.2 - -
23/04:00pm 19.3 - - - - ESE 30 35 16 19 1018.2 1018.1 -
23/03:30pm 19.2 - - - - ESE 28 33 15 18 1018.3 - -
23/03:00pm 19.3 - - - - ESE 26 30 14 16 1018.4 1018.3 -
23/02:30pm 19.4 - - - - ESE 24 28 13 15 1018.6 - -
23/02:00pm 19.2 - - - - ESE 22 26 12 14 1018.7 1018.6 -
23/01:30pm 19.2 - - - - SE 24 28 13 15 1018.9 - -
23/01:00pm 19.2 - - - - SE 20 24 11 13 1019.1 1019.0 -
23/12:30pm 18.9 - - - - SE 19 22 10 12 1019.4 - -
23/12:00pm 19.0 - - - - SSE 19 22 10 12 1020.5 1020.4 -
23/11:30am 18.7 - - - - S 22 26 12 14 1021.3 - -
23/11:00am 18.3 - - - - SSE 22 26 12 14 1020.7 1020.6 -
23/10:30am 18.2 - - - - SSE 24 30 13 16 1020.8 - -
23/10:00am 18.0 - - - - S 24 26 13 14 1021.4 1021.3 -
23/09:30am 17.6 - - - - S 24 28 13 15 1021.6 - -
23/09:00am 17.4 - - - - S 28 30 15 16 1021.5 1021.4 -
23/08:30am 17.3 - - - - S 26 30 14 16 1021.2 - -
23/08:00am 17.2 - - - - S 28 33 15 18 1020.7 1020.6 -
23/07:30am 17.2 - - - - S 30 32 16 17 1020.4 - -
23/07:00am 17.2 - - - - SSE 26 30 14 16 1019.9 1019.8 -
23/06:30am 17.2 - - - - S 26 30 14 16 1019.6 - -
23/06:00am 17.3 - - - - S 26 30 14 16 1019.1 1019.0 -
23/05:30am 17.1 - - - - S 22 24 12 13 1019.0 - -
23/05:00am 17.0 - - - - S 24 28 13 15 1018.7 1018.6 -
23/04:30am 17.0 - - - - S 24 28 13 15 1018.6 - -
23/04:00am 17.0 - - - - S 22 26 12 14 1018.2 1018.1 -
23/03:30am 17.0 - - - - S 24 26 13 14 1018.2 - -
23/03:00am 17.2 - - - - S 24 26 13 14 1018.4 1018.3 -
23/02:30am 17.5 - - - - S 22 24 12 13 1018.5 - -
23/02:00am 17.5 - - - - S 22 24 12 13 1018.6 1018.5 -
23/01:30am 17.5 - - - - S 22 26 12 14 1018.9 - -
23/01:00am 17.7 - - - - S 22 26 12 14 1019.1 1019.0 -
23/12:30am 17.9 - - - - SSE 22 26 12 14 1019.3 - -
23/12:00am 17.8 - - - - S 20 22 11 12 1019.2 1019.1 -
 
Date/Time
EST
Temp
°C
App
Temp
°C
Dew
Point
Rel
Hum
%
Delta-T
°C
Wind Press
QNH
hPa
Press
MSL
hPa
Rain
since 9 am
mm
Dir
 
Spd
km/h
Gust
km/h
Spd
kts
Gust
kts
22/11:30pm 18.3 - - - - SSE 20 24 11 13 1019.3 - -
22/11:00pm 18.4 - - - - SSE 20 22 11 12 1019.5 1019.4 -

Other Formats:

Comma delimited format used in spreadsheet applications
http://www.bom.gov.au/fwo/IDQ60801/IDQ60801.94378.axf

JavaScript Object Notation format (JSON) in row-major order
http://www.bom.gov.au/fwo/IDQ60801/IDQ60801.94378.json